Time;durP1;ratioP1;P1;durP2;ratioP2;P2;SDS_P1;SDS_P2;PMS_P1;PMS_P2;Temp;Humidity;BMP_temperature;BMP_pressure;BME280_temperature;BME280_humidity;BME280_pressure;Samples;Min_cycle;Max_cycle;Signal;HPM_P1;HPM_P2
2020/12/31 00:00:25;;;;;;;0.70;0.70;;;;;;;8.27;98.93;100454.45;1723383;83;21187;-51
2020/12/31 00:02:53;;;;;;;0.30;0.25;;;;;;;8.28;98.87;100447.36;1755188;81;21131;-51
2020/12/31 00:05:21;;;;;;;0.82;0.82;;;;;;;8.27;98.80;100446.29;1755431;81;21545;-51
2020/12/31 00:07:48;;;;;;;1.62;1.52;;;;;;;8.25;98.70;100445.73;1755715;81;21166;-51
2020/12/31 00:10:16;;;;;;;1.47;0.57;;;;;;;8.22;98.70;100444.90;1742124;81;21138;-51
2020/12/31 00:12:44;;;;;;;2.62;1.05;;;;;;;8.21;98.61;100452.77;1731856;82;21134;-51
2020/12/31 00:15:13;;;;;;;1.55;1.45;;;;;;;8.18;98.61;100450.87;1731832;81;21650;-51
2020/12/31 00:17:41;;;;;;;0.55;0.47;;;;;;;8.16;98.63;100450.31;1732391;82;21166;-51
2020/12/31 00:20:09;;;;;;;0.57;0.57;;;;;;;8.17;98.61;100446.50;1732258;81;21188;-51
2020/12/31 00:22:36;;;;;;;0.90;0.72;;;;;;;8.18;98.55;100448.16;1732327;82;21106;-51
2020/12/31 00:25:06;;;;;;;0.17;0.17;;;;;;;8.19;98.44;100445.70;1732318;81;21620;-52
2020/12/31 00:27:34;;;;;;;0.20;0.20;;;;;;;8.19;98.40;100438.08;1732418;82;21454;-51
2020/12/31 00:30:08;;;;;;;0.53;0.53;;;;;;;8.21;98.39;100448.69;1732322;82;21170;-52
2020/12/31 00:32:35;;;;;;;0.47;0.30;;;;;;;8.23;98.25;100447.89;1732444;82;21564;-51
2020/12/31 00:35:06;;;;;;;2.80;0.70;;;;;;;8.23;98.09;100442.44;1732101;81;21097;-51
2020/12/31 00:37:34;;;;;;;0.00;0.00;;;;;;;8.25;98.02;100447.09;1727298;82;21148;-51
2020/12/31 00:40:03;;;;;;;0.17;0.17;;;;;;;8.25;97.85;100443.00;1732338;82;21136;-52
2020/12/31 00:42:31;;;;;;;0.65;0.65;;;;;;;8.27;97.77;100451.19;1732510;82;21172;-52
2020/12/31 00:44:58;;;;;;;0.30;0.30;;;;;;;8.27;97.64;100446.29;1701310;82;21200;-51
2020/12/31 00:47:26;;;;;;;2.17;0.62;;;;;;;8.28;97.53;100441.11;1732500;82;21231;-52
2020/12/31 00:49:54;;;;;;;0.40;0.40;;;;;;;8.29;97.38;100444.13;1755865;81;21108;-51
2020/12/31 00:52:21;;;;;;;0.57;0.57;;;;;;;8.30;97.10;100444.39;1756195;81;21123;-51
2020/12/31 00:54:49;;;;;;;4.03;0.82;;;;;;;8.32;97.00;100444.41;1736413;81;21135;-51
2020/12/31 00:57:17;;;;;;;0.45;0.45;;;;;;;8.34;96.84;100441.42;1756134;81;21614;-51
2020/12/31 00:59:45;;;;;;;0.70;0.70;;;;;;;8.31;96.66;100448.22;1736529;81;21119;-51
2020/12/31 01:02:13;;;;;;;0.80;0.80;;;;;;;8.33;96.64;100454.75;1755964;81;21120;-51
2020/12/31 01:04:40;;;;;;;1.17;0.78;;;;;;;8.33;96.38;100447.42;1755961;81;21317;-52
2020/12/31 01:07:07;;;;;;;0.10;0.10;;;;;;;8.32;96.28;100447.13;1755919;81;21150;-52
2020/12/31 01:09:35;;;;;;;0.30;0.30;;;;;;;8.32;96.22;100447.67;1755730;81;21141;-52
2020/12/31 01:12:04;;;;;;;0.10;0.10;;;;;;;8.32;96.05;100444.95;1756009;81;21535;-51
2020/12/31 01:14:31;;;;;;;1.20;1.15;;;;;;;8.31;95.96;100446.05;1755890;81;21458;-51
2020/12/31 01:16:59;;;;;;;2.17;1.20;;;;;;;8.30;95.77;100449.84;1755889;81;21647;-51
2020/12/31 01:19:26;;;;;;;0.45;0.45;;;;;;;8.28;95.72;100443.83;1755892;81;21025;-51
2020/12/31 01:21:54;;;;;;;3.67;0.42;;;;;;;8.27;95.62;100444.92;1736232;81;21628;-51
2020/12/31 01:24:22;;;;;;;0.75;0.40;;;;;;;8.24;95.46;100447.63;1732460;81;21482;-51
2020/12/31 01:26:49;;;;;;;0.72;0.72;;;;;;;8.19;95.42;100442.16;1732304;82;21169;-51
2020/12/31 01:29:17;;;;;;;0.25;0.25;;;;;;;8.12;95.21;100453.27;1732685;81;22412;-51
2020/12/31 01:31:48;;;;;;;0.55;0.55;;;;;;;8.06;95.24;100450.26;1732512;82;21140;-51
2020/12/31 01:34:15;;;;;;;3.15;1.30;;;;;;;8.01;95.30;100439.86;1732411;82;21150;-51
2020/12/31 01:36:43;;;;;;;0.55;0.55;;;;;;;7.93;95.31;100429.74;1732487;82;21126;-52
2020/12/31 01:39:10;;;;;;;0.08;0.08;;;;;;;7.85;95.45;100425.34;1732633;82;21106;-51
2020/12/31 01:41:38;;;;;;;0.50;0.50;;;;;;;7.74;95.61;100423.92;1732868;82;21181;-51
2020/12/31 01:44:08;;;;;;;1.20;0.37;;;;;;;7.66;95.89;100409.42;1732557;81;21153;-51
2020/12/31 01:46:38;;;;;;;1.35;0.90;;;;;;;7.61;96.14;100420.81;1732579;82;21168;-51
2020/12/31 01:49:09;;;;;;;1.00;0.90;;;;;;;7.53;96.20;100434.36;1732565;82;21179;-51
2020/12/31 01:51:37;;;;;;;0.60;0.60;;;;;;;7.47;96.44;100438.13;1732627;82;21151;-51
2020/12/31 01:54:05;;;;;;;0.85;0.85;;;;;;;7.40;96.54;100426.64;1737023;81;21119;-51
2020/12/31 01:56:34;;;;;;;0.95;0.95;;;;;;;7.31;96.64;100432.53;1736791;81;21123;-51
2020/12/31 01:59:02;;;;;;;0.50;0.50;;;;;;;7.25;96.86;100429.50;1755917;81;21135;-51
2020/12/31 02:01:30;;;;;;;0.68;0.68;;;;;;;7.17;97.16;100433.20;1755899;81;21617;-51
2020/12/31 02:03:58;;;;;;;1.07;1.07;;;;;;;7.12;97.32;100428.53;1756074;81;21135;-51
2020/12/31 02:06:28;;;;;;;1.07;0.50;;;;;;;7.08;97.48;100417.92;1756148;81;21120;-51
2020/12/31 02:08:56;;;;;;;0.33;0.33;;;;;;;7.05;97.79;100423.87;1756100;81;21690;-51
2020/12/31 02:11:25;;;;;;;0.82;0.42;;;;;;;7.01;98.00;100418.66;1755961;81;21152;-51
2020/12/31 02:13:53;;;;;;;0.62;0.35;;;;;;;6.98;98.14;100419.18;1756045;81;21119;-51
2020/12/31 02:16:24;;;;;;;1.55;0.40;;;;;;;6.96;98.29;100423.50;1756044;81;21648;-51
2020/12/31 02:18:56;;;;;;;0.45;0.45;;;;;;;6.95;98.42;100422.38;1756130;81;21139;-51
2020/12/31 02:21:26;;;;;;;1.05;0.72;;;;;;;6.93;98.60;100419.13;1756080;81;21166;-51
2020/12/31 02:23:54;;;;;;;1.10;0.98;;;;;;;6.91;98.74;100422.63;1756061;81;21187;-52
2020/12/31 02:26:25;;;;;;;0.60;0.60;;;;;;;6.89;98.86;100411.47;1755927;81;21147;-51
2020/12/31 02:28:53;;;;;;;0.33;0.33;;;;;;;6.87;98.92;100406.86;1756066;81;21131;-51
2020/12/31 02:31:23;;;;;;;0.30;0.30;;;;;;;6.85;99.14;100410.36;1756170;81;21534;-52
2020/12/31 02:33:51;;;;;;;0.78;0.78;;;;;;;6.84;99.34;100414.13;1755735;81;21537;-51
2020/12/31 02:36:23;;;;;;;0.33;0.33;;;;;;;6.84;99.43;100415.49;1755800;81;21135;-51
2020/12/31 02:38:51;;;;;;;0.95;0.95;;;;;;;6.85;99.58;100412.27;1756011;81;21119;-51
2020/12/31 02:41:19;;;;;;;0.55;0.47;;;;;;;6.86;99.57;100411.17;1756044;81;21111;-51
2020/12/31 02:43:46;;;;;;;1.75;0.65;;;;;;;6.83;99.54;100407.08;1756002;81;21131;-51
2020/12/31 02:46:15;;;;;;;2.05;1.52;;;;;;;6.80;99.53;100408.95;1756192;81;21171;-52
2020/12/31 02:48:43;;;;;;;0.62;0.45;;;;;;;6.77;99.53;100406.72;1755883;81;21131;-52
2020/12/31 02:51:10;;;;;;;0.90;0.90;;;;;;;6.74;99.55;100406.42;1755956;81;21123;-51
2020/12/31 02:53:38;;;;;;;0.90;0.85;;;;;;;6.68;99.59;100412.34;1756038;81;21111;-51
2020/12/31 02:56:12;;;;;;;0.88;0.82;;;;;;;6.63;99.67;100405.50;1755875;80;21184;-51
2020/12/31 02:58:39;;;;;;;1.15;0.53;;;;;;;6.58;99.60;100405.45;1755813;81;21123;-51
2020/12/31 03:01:08;;;;;;;0.10;0.10;;;;;;;6.53;99.66;100407.56;1755888;81;21131;-52
2020/12/31 03:03:36;;;;;;;1.80;1.65;;;;;;;6.45;99.65;100399.33;1756013;81;21131;-52
2020/12/31 03:06:05;;;;;;;0.72;0.72;;;;;;;6.37;99.74;100405.17;1755951;81;21122;-51
2020/12/31 03:08:34;;;;;;;1.42;1.32;;;;;;;6.29;99.74;100407.53;1756065;81;21486;-52
2020/12/31 03:11:03;;;;;;;0.45;0.45;;;;;;;6.20;99.72;100405.23;1756003;81;21131;-52
2020/12/31 03:13:31;;;;;;;0.62;0.62;;;;;;;6.10;99.78;100406.45;1755915;81;21263;-51
2020/12/31 03:15:59;;;;;;;1.55;1.05;;;;;;;6.00;99.98;100399.54;1752907;81;21146;-51
2020/12/31 03:18:26;;;;;;;5.92;0.57;;;;;;;5.92;100.00;100402.11;1724178;83;21453;-51
2020/12/31 03:20:54;;;;;;;0.60;0.60;;;;;;;5.85;100.00;100404.18;1724461;83;21413;-51
2020/12/31 03:23:21;;;;;;;0.75;0.70;;;;;;;5.77;100.00;100399.19;1724302;83;21157;-52
2020/12/31 03:25:49;;;;;;;0.98;0.60;;;;;;;5.72;100.00;100403.19;1724370;83;21181;-51
2020/12/31 03:28:17;;;;;;;1.45;1.05;;;;;;;5.65;100.00;100403.88;1724313;81;21158;-51
2020/12/31 03:30:46;;;;;;;1.05;0.68;;;;;;;5.65;100.00;100406.05;1724350;83;21119;-51
2020/12/31 03:33:14;;;;;;;0.25;0.20;;;;;;;5.65;100.00;100399.28;1724341;81;21123;-51
2020/12/31 03:35:44;;;;;;;0.68;0.55;;;;;;;5.65;100.00;100397.11;1724289;83;21445;-51
2020/12/31 03:38:12;;;;;;;0.30;0.30;;;;;;;5.63;100.00;100392.46;1724148;81;21146;-51
2020/12/31 03:40:39;;;;;;;0.88;0.47;;;;;;;5.62;100.00;100390.30;1724258;83;21210;-51
2020/12/31 03:43:07;;;;;;;0.40;0.17;;;;;;;5.63;100.00;100399.23;1724435;83;21541;-51
2020/12/31 03:45:36;;;;;;;0.30;0.30;;;;;;;5.59;100.00;100397.57;1721736;83;21147;-51
2020/12/31 03:48:04;;;;;;;0.37;0.35;;;;;;;5.57;100.00;100398.34;1724325;83;21138;-51
2020/12/31 03:50:31;;;;;;;0.55;0.55;;;;;;;5.55;100.00;100398.58;1724197;81;21512;-51
2020/12/31 03:52:59;;;;;;;4.95;0.85;;;;;;;5.54;100.00;100392.08;1724243;83;21118;-51
2020/12/31 03:55:26;;;;;;;0.15;0.15;;;;;;;5.51;100.00;100393.90;1721674;81;21430;-51
2020/12/31 03:57:54;;;;;;;1.12;1.07;;;;;;;5.46;100.00;100391.92;1727248;83;21130;-51
2020/12/31 04:00:21;;;;;;;0.20;0.20;;;;;;;5.43;100.00;100394.32;1727163;81;21150;-51
2020/12/31 04:02:49;;;;;;;0.80;0.80;;;;;;;5.40;100.00;100392.92;1727155;83;21182;-51
2020/12/31 04:05:16;;;;;;;1.42;0.88;;;;;;;5.35;100.00;100395.55;1727369;81;21436;-51
2020/12/31 04:07:44;;;;;;;0.10;0.10;;;;;;;5.32;100.00;100395.52;1727192;82;21528;-51
2020/12/31 04:10:12;;;;;;;0.98;0.98;;;;;;;5.29;100.00;100388.39;1727160;81;21122;-51
2020/12/31 04:12:39;;;;;;;0.80;0.65;;;;;;;5.27;100.00;100394.08;1727176;83;21169;-51
2020/12/31 04:15:07;;;;;;;0.40;0.40;;;;;;;5.25;100.00;100387.27;1727011;81;21595;-51
2020/12/31 04:17:34;;;;;;;0.57;0.37;;;;;;;5.23;100.00;100396.16;1727163;82;21142;-51
2020/12/31 04:20:05;;;;;;;0.00;0.00;;;;;;;5.22;100.00;100393.99;1727139;81;21137;-51
2020/12/31 04:22:32;;;;;;;0.20;0.20;;;;;;;5.22;100.00;100399.41;1727289;82;21103;-51
2020/12/31 04:25:00;;;;;;;3.25;1.35;;;;;;;5.20;100.00;100402.08;1727064;81;21153;-51
2020/12/31 04:27:28;;;;;;;0.98;0.93;;;;;;;5.17;100.00;100398.79;1727167;82;21182;-51
2020/12/31 04:29:55;;;;;;;0.65;0.65;;;;;;;5.17;100.00;100405.56;1727148;81;21138;-51
2020/12/31 04:32:23;;;;;;;0.85;0.85;;;;;;;5.16;100.00;100406.61;1727145;82;21175;-52
2020/12/31 04:34:50;;;;;;;0.33;0.33;;;;;;;5.15;100.00;100417.70;1727153;81;21130;-51
2020/12/31 04:37:18;;;;;;;1.22;1.12;;;;;;;5.12;100.00;100427.14;1727278;82;21532;-51
2020/12/31 04:39:46;;;;;;;0.53;0.53;;;;;;;5.09;100.00;100420.84;1727189;81;21146;-51
2020/12/31 04:42:13;;;;;;;0.90;0.75;;;;;;;5.06;100.00;100419.98;1727308;82;21154;-51
2020/12/31 04:44:41;;;;;;;1.10;1.10;;;;;;;5.05;100.00;100418.34;1727010;81;21147;-51
2020/12/31 04:47:09;;;;;;;1.00;0.47;;;;;;;5.03;100.00;100418.30;1727086;82;21565;-51
2020/12/31 04:49:44;;;;;;;1.65;1.55;;;;;;;5.02;100.00;100415.28;1727140;81;21167;-51
2020/12/31 04:52:11;;;;;;;0.98;0.98;;;;;;;5.01;100.00;100419.89;1727092;83;21448;-51
2020/12/31 04:54:39;;;;;;;0.42;0.37;;;;;;;5.00;100.00;100425.56;1727049;81;21133;-51
2020/12/31 04:57:08;;;;;;;0.85;0.85;;;;;;;4.98;100.00;100433.11;1727511;83;21114;-51
2020/12/31 04:59:36;;;;;;;1.02;1.02;;;;;;;4.95;100.00;100434.41;1759592;81;21142;-51
2020/12/31 05:02:07;;;;;;;0.62;0.62;;;;;;;4.91;100.00;100427.29;1759531;81;21434;-52
2020/12/31 05:04:34;;;;;;;0.42;0.42;;;;;;;4.86;100.00;100435.86;1789001;78;21508;-51
2020/12/31 05:07:02;;;;;;;0.10;0.10;;;;;;;4.83;100.00;100435.00;1789028;80;21134;-51
2020/12/31 05:09:30;;;;;;;0.37;0.37;;;;;;;4.80;100.00;100443.58;1788963;78;21113;-51
2020/12/31 05:11:59;;;;;;;0.35;0.20;;;;;;;4.80;100.00;100444.93;1710437;81;21126;-51
2020/12/31 05:14:34;;;;;;;0.20;0.20;;;;;;;4.79;100.00;100448.17;1788890;78;21150;-51
2020/12/31 05:17:16;;;;;;;0.28;0.28;;;;;;;4.85;100.00;100450.47;1789234;79;21438;-51
2020/12/31 05:19:44;;;;;;;0.72;0.60;;;;;;;4.86;100.00;100445.34;1787880;78;21150;-51
2020/12/31 05:22:15;;;;;;;0.20;0.20;;;;;;;4.90;100.00;100451.38;1789405;80;21548;-51
2020/12/31 05:24:45;;;;;;;0.42;0.20;;;;;;;4.94;100.00;100444.94;1789007;78;21126;-51
2020/12/31 05:27:22;;;;;;;0.57;0.57;;;;;;;4.98;100.00;100450.17;1789210;80;21150;-51
2020/12/31 05:29:58;;;;;;;0.23;0.23;;;;;;;5.02;100.00;100455.91;1734353;81;21147;-51
2020/12/31 05:32:29;;;;;;;0.10;0.10;;;;;;;5.06;100.00;100462.50;1759842;81;21125;-51
2020/12/31 05:34:57;;;;;;;0.08;0.08;;;;;;;5.08;100.00;100457.13;1759829;81;21182;-51
2020/12/31 05:37:28;;;;;;;0.50;0.50;;;;;;;5.11;100.00;100462.05;1789229;80;21098;-51
2020/12/31 05:40:07;;;;;;;0.47;0.47;;;;;;;5.12;100.00;100461.00;1789054;78;21141;-51
2020/12/31 05:42:38;;;;;;;0.40;0.40;;;;;;;5.13;100.00;100458.57;1789135;79;21153;-51
2020/12/31 05:45:17;;;;;;;0.53;0.53;;;;;;;5.20;100.00;100467.09;1789207;78;21599;-52
2020/12/31 05:47:52;;;;;;;0.23;0.23;;;;;;;5.24;100.00;100458.75;1789018;80;21137;-51
2020/12/31 05:50:24;;;;;;;0.68;0.50;;;;;;;5.28;100.00;100459.92;1789223;78;21586;-51
2020/12/31 05:52:53;;;;;;;0.10;0.10;;;;;;;5.29;100.00;100457.48;1759696;81;21131;-51
2020/12/31 05:55:25;;;;;;;0.72;0.72;;;;;;;5.32;100.00;100452.95;1788976;78;21154;-51
2020/12/31 05:57:55;;;;;;;0.10;0.10;;;;;;;5.34;100.00;100454.86;1791158;79;21135;-51
2020/12/31 06:00:25;;;;;;;1.27;0.28;;;;;;;5.34;100.00;100455.70;1791819;78;21101;-51
2020/12/31 06:02:54;;;;;;;1.37;1.27;;;;;;;5.34;100.00;100454.86;1774671;80;21545;-52
2020/12/31 06:05:22;;;;;;;1.60;0.57;;;;;;;5.34;100.00;100461.64;1791837;78;21592;-51
2020/12/31 06:07:55;;;;;;;0.37;0.37;;;;;;;5.35;100.00;100461.41;1791672;80;21134;-52
2020/12/31 06:10:26;;;;;;;4.22;1.92;;;;;;;5.39;100.00;100468.53;1791608;78;21102;-51
2020/12/31 06:12:59;;;;;;;0.13;0.13;;;;;;;5.42;100.00;100462.61;1791449;80;21074;-52
2020/12/31 06:15:37;;;;;;;0.00;0.00;;;;;;;5.46;100.00;100458.87;1791738;78;21428;-51
2020/12/31 06:18:06;;;;;;;0.72;0.62;;;;;;;5.49;100.00;100455.66;1791723;80;21123;-51
2020/12/31 06:20:37;;;;;;;0.17;0.17;;;;;;;5.52;100.00;100451.94;1791875;80;21143;-51
2020/12/31 06:23:07;;;;;;;0.10;0.10;;;;;;;5.55;100.00;100446.02;1790342;80;21516;-51
2020/12/31 06:25:47;;;;;;;2.15;0.50;;;;;;;5.58;100.00;100454.19;1791981;80;21102;-52
2020/12/31 06:28:19;;;;;;;1.80;0.25;;;;;;;5.60;100.00;100455.59;1792047;78;21150;-51
2020/12/31 06:30:48;;;;;;;;;;;;;;;5.65;100.00;100464.88;1794733;80;21110;-51
2020/12/31 06:33:28;;;;;;;0.10;0.10;;;;;;;5.68;100.00;100469.27;1725210;81;20479;-51
2020/12/31 06:36:00;;;;;;;1.25;0.37;;;;;;;5.70;100.00;100462.25;1757171;81;21128;-51
2020/12/31 06:38:36;;;;;;;0.35;0.35;;;;;;;5.74;100.00;100463.41;1755902;81;21602;-51
2020/12/31 06:41:06;;;;;;;0.75;0.23;;;;;;;5.78;100.00;100472.13;1741073;82;21564;-51
2020/12/31 06:43:38;;;;;;;0.13;0.13;;;;;;;5.81;100.00;100469.46;1694161;82;21184;-51
2020/12/31 06:46:21;;;;;;;0.88;0.30;;;;;;;5.86;100.00;100474.15;1707641;83;21155;-51
2020/12/31 06:48:52;;;;;;;;;;;;;;;5.89;100.00;100473.13;1739915;81;21114;-51
2020/12/31 06:51:25;;;;;;;1.30;0.30;;;;;;;5.91;100.00;100481.84;1741373;82;20259;-52
2020/12/31 06:53:53;;;;;;;0.47;0.47;;;;;;;5.93;100.00;100482.40;1741460;82;21125;-51
2020/12/31 06:56:50;;;;;;;0.00;0.00;;;;;;;5.97;100.00;100478.70;1741559;82;21448;-51
2020/12/31 06:59:34;;;;;;;1.07;1.07;;;;;;;5.98;100.00;100482.54;1711085;82;21151;-51
2020/12/31 07:02:12;;;;;;;0.35;0.25;;;;;;;6.00;100.00;100480.38;1720011;82;21646;-51
2020/12/31 07:04:39;;;;;;;0.13;0.10;;;;;;;6.05;100.00;100482.89;1731895;81;21141;-51
2020/12/31 07:07:25;;;;;;;0.20;0.20;;;;;;;6.08;100.00;100481.84;1733215;82;21181;-51
2020/12/31 07:09:57;;;;;;;1.02;0.33;;;;;;;6.12;99.90;100479.47;1740771;81;21149;-51
2020/12/31 07:12:41;;;;;;;4.92;0.88;;;;;;;6.13;99.49;100474.31;1733001;82;29702;-51
2020/12/31 07:15:09;;;;;;;1.65;1.35;;;;;;;6.15;99.45;100472.18;1713710;81;21175;-51
2020/12/31 07:17:42;;;;;;;0.82;0.82;;;;;;;6.19;99.26;100476.05;1703493;84;21184;-52
2020/12/31 07:20:15;;;;;;;1.65;1.55;;;;;;;6.20;99.11;100468.18;1732767;81;21166;-51
2020/12/31 07:22:44;;;;;;;0.28;0.28;;;;;;;6.22;98.98;100476.90;1712508;82;21186;-51
2020/12/31 07:25:18;;;;;;;0.93;0.90;;;;;;;6.23;98.88;100476.66;1703359;82;21699;-51
2020/12/31 07:30:25;;;;;;;0.57;0.57;;;;;;;6.34;98.67;100474.90;1815804;75;22654;-50
2020/12/31 07:33:04;;;;;;;0.90;0.90;;;;;;;6.32;98.48;100477.03;1704569;81;21569;-50
2020/12/31 07:35:40;;;;;;;1.07;0.75;;;;;;;6.35;98.35;100486.03;1748428;80;21526;-50
2020/12/31 07:38:14;;;;;;;0.10;0.10;;;;;;;6.39;98.24;100480.94;1777701;80;21175;-50
2020/12/31 07:40:53;;;;;;;0.53;0.28;;;;;;;6.43;98.12;100484.26;1777309;80;21549;-49
2020/12/31 07:43:26;;;;;;;3.00;0.60;;;;;;;6.48;97.96;100479.95;1777215;80;21248;-50
2020/12/31 07:46:00;;;;;;;0.70;0.55;;;;;;;6.50;97.96;100482.70;1779372;80;21094;-50
2020/12/31 07:48:28;;;;;;;0.85;0.57;;;;;;;6.54;97.72;100481.67;1785755;78;21153;-50
2020/12/31 07:50:57;;;;;;;0.65;0.65;;;;;;;6.58;97.61;100488.25;1785690;80;21129;-49
2020/12/31 07:53:29;;;;;;;0.08;0.08;;;;;;;6.60;97.50;100485.57;1785401;78;21201;-50
2020/12/31 07:55:57;;;;;;;0.55;0.55;;;;;;;6.64;97.46;100489.41;1785842;80;21149;-50
2020/12/31 07:58:32;;;;;;;1.55;0.20;;;;;;;6.66;97.41;100484.55;1785631;78;21225;-50
2020/12/31 08:01:05;;;;;;;0.90;0.90;;;;;;;6.71;97.23;100485.16;1785729;80;21129;-50
2020/12/31 08:03:33;;;;;;;1.10;1.10;;;;;;;6.72;97.02;100488.14;1785616;78;20995;-50
2020/12/31 08:06:04;;;;;;;1.15;0.45;;;;;;;6.73;96.92;100487.08;1785688;80;21643;-49
2020/12/31 08:08:32;;;;;;;1.85;1.20;;;;;;;6.75;96.79;100489.53;1785606;78;21246;-50
2020/12/31 08:11:07;;;;;;;1.27;0.62;;;;;;;6.77;96.67;100488.20;1785412;80;21181;-50
2020/12/31 08:13:38;;;;;;;1.00;0.55;;;;;;;6.77;96.62;100490.91;1785794;78;21131;-50
2020/12/31 08:16:06;;;;;;;0.23;0.23;;;;;;;6.76;96.55;100493.36;1785679;80;21441;-50
2020/12/31 08:18:34;;;;;;;0.62;0.62;;;;;;;6.77;96.52;100489.55;1756246;80;21193;-50
2020/12/31 08:21:04;;;;;;;0.72;0.70;;;;;;;6.78;96.62;100484.42;1754525;81;21616;-50
2020/12/31 08:23:37;;;;;;;0.78;0.78;;;;;;;6.80;96.73;100492.30;1754585;80;21627;-50
2020/12/31 08:26:08;;;;;;;0.15;0.15;;;;;;;6.80;96.82;100500.45;1746824;80;21133;-50
2020/12/31 08:28:36;;;;;;;0.47;0.45;;;;;;;6.80;96.84;100493.14;1776716;80;21262;-49
2020/12/31 08:31:17;;;;;;;0.37;0.37;;;;;;;6.80;96.82;100496.38;1755554;80;21554;-50
2020/12/31 08:33:44;;;;;;;0.53;0.53;;;;;;;6.79;96.95;100498.28;1776603;80;21132;-50
2020/12/31 08:36:26;;;;;;;0.98;0.93;;;;;;;6.82;97.15;100501.84;1788252;80;21118;-50
2020/12/31 08:38:54;;;;;;;1.65;0.40;;;;;;;6.85;97.15;100495.92;1760672;80;21161;-49
2020/12/31 08:41:22;;;;;;;2.10;0.68;;;;;;;6.89;97.20;100500.30;1760151;81;21140;-50
2020/12/31 08:43:49;;;;;;;0.50;0.50;;;;;;;6.92;97.09;100500.33;1763984;80;21179;-50
2020/12/31 08:46:20;;;;;;;0.82;0.82;;;;;;;6.93;97.06;100488.41;1755366;80;21456;-50
2020/12/31 08:48:55;;;;;;;0.90;0.82;;;;;;;6.94;97.02;100490.03;1772467;80;21120;-49
2020/12/31 08:51:23;;;;;;;0.37;0.37;;;;;;;6.96;97.13;100491.42;1779606;79;21161;-50
2020/12/31 08:53:58;;;;;;;0.50;0.50;;;;;;;6.98;97.17;100490.63;1765140;80;21165;-49
2020/12/31 08:56:33;;;;;;;0.53;0.13;;;;;;;7.05;97.24;100479.58;1887705;76;22668;-49
2020/12/31 08:59:11;;;;;;;2.62;1.17;;;;;;;7.03;97.30;100484.44;1854858;77;21524;-50
2020/12/31 09:01:42;;;;;;;0.25;0.25;;;;;;;7.05;97.22;100487.73;1758535;80;21143;-50
2020/12/31 09:04:17;;;;;;;1.47;1.27;;;;;;;7.08;97.04;100474.98;1778576;80;21553;-50
2020/12/31 09:06:51;;;;;;;0.28;0.25;;;;;;;7.09;97.02;100476.61;1774695;79;21875;-50
2020/12/31 09:09:23;;;;;;;0.47;0.47;;;;;;;7.12;97.08;100476.09;1788157;80;21394;-49
2020/12/31 09:11:55;;;;;;;0.65;0.65;;;;;;;7.16;97.02;100474.52;1757548;81;21123;-49
2020/12/31 09:14:23;;;;;;;2.05;1.02;;;;;;;7.19;96.91;100474.54;1757891;80;21191;-50
2020/12/31 09:16:51;;;;;;;0.05;0.05;;;;;;;7.21;96.98;100470.48;1757221;81;21135;-50
2020/12/31 09:19:19;;;;;;;0.62;0.62;;;;;;;7.22;96.90;100467.22;1768807;81;21111;-50
2020/12/31 09:21:46;;;;;;;0.40;0.05;;;;;;;7.23;96.89;100479.20;1762833;81;21099;-50
2020/12/31 09:24:23;;;;;;;1.85;0.93;;;;;;;7.26;96.86;100474.61;1762662;81;21119;-50
2020/12/31 09:26:54;;;;;;;0.62;0.62;;;;;;;7.27;96.77;100475.42;1762692;81;21135;-50
2020/12/31 09:29:22;;;;;;;0.53;0.53;;;;;;;7.26;96.83;100480.05;1762734;81;21131;-50
2020/12/31 09:31:50;;;;;;;0.35;0.23;;;;;;;7.29;96.79;100471.92;1762832;81;21135;-50
2020/12/31 09:34:18;;;;;;;0.13;0.13;;;;;;;7.30;96.66;100475.75;1769168;79;21557;-50
2020/12/31 09:36:45;;;;;;;0.57;0.57;;;;;;;7.30;96.54;100462.16;1794144;79;21155;-49
2020/12/31 09:39:12;;;;;;;1.17;0.62;;;;;;;7.32;96.46;100475.51;1784636;80;21135;-50
2020/12/31 09:41:40;;;;;;;1.60;1.50;;;;;;;7.32;96.47;100462.73;1803295;79;21120;-50
2020/12/31 09:44:07;;;;;;;0.10;0.10;;;;;;;7.35;96.50;100466.02;1737586;80;21162;-50
2020/12/31 09:46:35;;;;;;;0.78;0.75;;;;;;;7.40;96.51;100460.63;1762744;81;21150;-49
2020/12/31 09:49:03;;;;;;;0.37;0.37;;;;;;;7.44;96.43;100463.09;1762729;81;21135;-50
2020/12/31 09:51:31;;;;;;;1.57;0.93;;;;;;;7.45;96.12;100462.03;1771486;79;21155;-50
2020/12/31 09:53:59;;;;;;;1.35;0.75;;;;;;;7.47;96.23;100457.16;1794132;79;21107;-49
2020/12/31 09:56:30;;;;;;;0.90;0.72;;;;;;;7.50;96.26;100453.91;1794341;79;21710;-50
2020/12/31 09:58:58;;;;;;;0.47;0.47;;;;;;;7.51;96.20;100444.66;1784952;80;21186;-50
2020/12/31 10:01:26;;;;;;;0.50;0.45;;;;;;;7.51;96.11;100446.02;1780977;80;21139;-50
2020/12/31 10:03:54;;;;;;;0.90;0.50;;;;;;;7.50;95.92;100442.48;1784582;80;21127;-50
2020/12/31 10:06:21;;;;;;;1.32;0.93;;;;;;;7.50;95.70;100436.23;1784313;80;21196;-50
2020/12/31 10:08:52;;;;;;;1.15;1.05;;;;;;;7.49;95.62;100435.42;1766909;80;21112;-50
2020/12/31 10:11:20;;;;;;;0.10;0.10;;;;;;;7.51;95.67;100441.95;1783767;80;21139;-50
2020/12/31 10:13:48;;;;;;;1.77;0.75;;;;;;;7.49;95.33;100431.34;1784116;80;21214;-50
2020/12/31 10:16:15;;;;;;;1.40;0.95;;;;;;;7.49;95.22;100441.38;1784069;80;21174;-50
2020/12/31 10:18:43;;;;;;;0.70;0.60;;;;;;;7.49;95.20;100430.50;1784138;80;21150;-50
2020/12/31 10:21:12;;;;;;;0.40;0.40;;;;;;;7.48;94.96;100427.52;1784081;80;21172;-50
2020/12/31 10:23:39;;;;;;;1.07;0.72;;;;;;;7.45;94.90;100430.77;1784030;80;21089;-50
2020/12/31 10:26:07;;;;;;;0.10;0.10;;;;;;;7.42;95.13;100423.09;1785811;79;21123;-50
2020/12/31 10:28:34;;;;;;;0.62;0.62;;;;;;;7.41;95.13;100425.55;1786538;79;21703;-50
2020/12/31 10:31:01;;;;;;;2.47;0.45;;;;;;;7.40;95.17;100420.66;1786461;79;21183;-49
2020/12/31 10:33:29;;;;;;;0.95;0.35;;;;;;;7.38;95.24;100416.56;1786571;80;21303;-50
2020/12/31 10:35:56;;;;;;;1.12;1.10;;;;;;;7.36;95.34;100416.00;1786648;80;21100;-50
2020/12/31 10:38:23;;;;;;;0.57;0.57;;;;;;;7.35;95.41;100410.29;1784471;80;21127;-49
2020/12/31 10:40:51;;;;;;;1.27;1.17;;;;;;;7.33;95.50;100401.84;1753348;81;21146;-49
2020/12/31 10:43:18;;;;;;;1.20;0.55;;;;;;;7.35;95.69;100393.98;1773107;80;21155;-50
2020/12/31 10:45:45;;;;;;;0.50;0.45;;;;;;;7.37;95.83;100394.00;1752906;81;21178;-50
2020/12/31 10:48:13;;;;;;;0.55;0.37;;;;;;;7.40;95.92;100388.58;1783997;80;21167;-50
2020/12/31 10:50:40;;;;;;;0.68;0.40;;;;;;;7.40;95.99;100388.58;1752875;81;21150;-50
2020/12/31 10:53:08;;;;;;;1.20;1.10;;;;;;;7.40;96.08;100387.22;1784060;80;21143;-50
2020/12/31 10:55:36;;;;;;;1.07;0.95;;;;;;;7.39;96.19;100394.53;1753019;81;21146;-49
2020/12/31 10:58:04;;;;;;;0.75;0.75;;;;;;;7.41;96.41;100392.38;1784929;80;21534;-50
2020/12/31 11:00:32;;;;;;;0.20;0.20;;;;;;;7.45;96.48;100385.36;1754766;80;21152;-51
2020/12/31 11:03:00;;;;;;;0.00;0.00;;;;;;;7.48;96.34;100385.38;1784926;79;21581;-51
2020/12/31 11:05:27;;;;;;;1.98;1.72;;;;;;;7.48;96.37;100381.30;1795533;78;21198;-51
2020/12/31 11:07:55;;;;;;;0.95;0.95;;;;;;;7.48;96.54;100384.83;1784836;80;21158;-51
2020/12/31 11:10:22;;;;;;;0.37;0.37;;;;;;;7.51;96.57;100380.77;1785561;78;21451;-50
2020/12/31 11:12:50;;;;;;;0.42;0.42;;;;;;;7.52;96.49;100379.70;1803799;78;21139;-51
2020/12/31 11:15:17;;;;;;;0.40;0.40;;;;;;;7.54;96.50;100382.95;1769021;80;21158;-51
2020/12/31 11:17:46;;;;;;;1.00;0.68;;;;;;;7.54;96.46;100376.16;1771747;79;21459;-50
2020/12/31 11:20:13;;;;;;;0.40;0.40;;;;;;;7.52;96.15;100382.42;1753647;81;21746;-51
2020/12/31 11:22:41;;;;;;;0.72;0.72;;;;;;;7.52;96.24;100382.42;1784718;80;21123;-51
2020/12/31 11:25:08;;;;;;;0.82;0.45;;;;;;;7.51;96.19;100388.38;1753661;80;21120;-50
2020/12/31 11:27:35;;;;;;;1.32;0.72;;;;;;;7.48;96.00;100390.81;1758405;80;21139;-50
2020/12/31 11:30:03;;;;;;;0.30;0.30;;;;;;;7.44;95.96;100395.12;1769419;81;21582;-50
2020/12/31 11:32:31;;;;;;;0.90;0.42;;;;;;;7.43;95.97;100386.69;1769255;80;21125;-50
2020/12/31 11:34:58;;;;;;;1.02;0.55;;;;;;;7.41;95.96;100398.36;1781592;80;21116;-50
2020/12/31 11:37:26;;;;;;;1.02;0.98;;;;;;;7.43;95.89;100404.37;1784552;80;21123;-51
2020/12/31 11:39:53;;;;;;;0.50;0.50;;;;;;;7.40;95.74;100406.25;1778819;80;21126;-50
2020/12/31 11:42:21;;;;;;;0.85;0.78;;;;;;;7.40;95.79;100395.38;1763451;80;21594;-50
2020/12/31 11:44:48;;;;;;;1.25;1.02;;;;;;;7.42;95.92;100387.75;1763846;78;21235;-50